Avila Beach, California
Current Conditions -  °F | °C
As of 8:56 PM on Monday 26 Jan 2015 (Local Time) from KSBP Reporting Station
Broken Clouds Broken Clouds  
Wind Chill: 17°   Ceiling: 11000
Heat Index: 17°   Visibility: 10mi
Dew Point:   Wind: 0mph
Humidity: 41%   Direction: NA
Pressure: 30.02"   Gusts: NA
Location:  35.18°N, 120.73°W
Report Text: KSBP 270456Z 00000KT 10SM BKN110 17/03 A3002 RMK AO2 SLP164 T01670033
Loading
Personal Weather Stations






























Interactive Weather Map New forecast layout! Learn more

10-Day Weather Forecast

Advertisements
Track Severe Weather on mobile